createdAt,value
2022-11-26T00:01:28.288Z,100928.80
2022-11-26T00:03:57.801Z,100932.29
2022-11-26T00:06:44.997Z,100934.50
2022-11-26T00:09:25.071Z,100933.96
2022-11-26T00:11:53.218Z,100934.73
2022-11-26T00:14:21.436Z,100933.40
2022-11-26T00:16:50.440Z,100935.95
2022-11-26T00:19:18.715Z,100935.53
2022-11-26T00:21:46.844Z,100936.71
2022-11-26T00:24:28.293Z,100937.96
2022-11-26T00:26:58.949Z,100934.41
2022-11-26T00:29:27.156Z,100935.00
2022-11-26T00:31:55.380Z,100939.95
2022-11-26T00:34:23.536Z,100940.94
2022-11-26T00:36:51.736Z,100943.20
2022-11-26T00:39:24.838Z,100939.55
2022-11-26T00:41:53.675Z,100948.17
2022-11-26T00:44:25.063Z,100947.36
2022-11-26T00:46:53.235Z,100947.06
2022-11-26T00:49:21.571Z,100945.91
2022-11-26T00:51:49.828Z,100944.66
2022-11-26T00:54:19.807Z,100947.98
2022-11-26T00:56:48.775Z,100950.14
2022-11-26T00:59:22.312Z,100956.08
2022-11-26T01:01:51.212Z,100953.03
2022-11-26T01:04:19.287Z,100951.70
2022-11-26T01:06:47.570Z,100953.19
2022-11-26T01:09:22.398Z,100954.13
2022-11-26T01:11:54.078Z,100953.10
2022-11-26T01:14:23.615Z,100956.00
2022-11-26T01:16:53.820Z,100955.05
2022-11-26T01:19:22.067Z,100951.27
2022-11-26T01:21:50.290Z,100955.08
2022-11-26T01:24:18.175Z,100952.12
2022-11-26T01:26:46.420Z,100954.20
2022-11-26T01:29:20.049Z,100953.80
2022-11-26T01:31:48.619Z,100953.46
2022-11-26T01:34:16.937Z,100956.98
2022-11-26T01:36:45.192Z,100949.48
2022-11-26T01:39:20.436Z,100949.41
2022-11-26T01:42:26.208Z,100952.27
2022-11-26T01:44:54.211Z,100953.74
2022-11-26T01:47:30.598Z,100958.77
2022-11-26T01:50:26.755Z,100961.50
2022-11-26T01:53:03.040Z,100962.55
2022-11-26T01:55:45.283Z,100959.80
2022-11-26T01:58:20.518Z,100960.29
2022-11-26T02:00:56.083Z,100966.19
2022-11-26T02:03:25.096Z,100964.52
2022-11-26T02:05:59.611Z,100959.98
2022-11-26T02:08:30.410Z,100958.14
2022-11-26T02:10:58.566Z,100958.89
2022-11-26T02:13:27.192Z,100961.90
2022-11-26T02:16:04.976Z,100960.26
2022-11-26T02:18:42.222Z,100964.10
2022-11-26T02:21:21.215Z,100968.05
2022-11-26T02:24:13.872Z,100973.64
2022-11-26T02:26:54.106Z,100971.97
2022-11-26T02:29:41.067Z,100968.89
2022-11-26T02:32:22.775Z,100978.15
2022-11-26T02:34:59.250Z,100974.02
2022-11-26T02:37:37.350Z,100977.30
2022-11-26T02:40:08.937Z,100977.13
2022-11-26T02:42:37.194Z,100978.31
2022-11-26T02:45:32.024Z,100975.61
2022-11-26T02:48:03.231Z,100976.29
2022-11-26T02:50:37.266Z,100977.53
2022-11-26T02:53:07.546Z,100979.27
2022-11-26T02:55:40.597Z,100984.31
2022-11-26T02:58:09.230Z,100976.77
2022-11-26T03:00:41.664Z,100976.92
2022-11-26T03:03:27.457Z,100975.13
2022-11-26T03:06:01.587Z,100980.08
2022-11-26T03:08:32.191Z,100979.15
2022-11-26T03:11:00.384Z,100983.15
2022-11-26T03:13:28.867Z,100985.16
2022-11-26T03:15:57.218Z,100982.18
2022-11-26T03:18:25.574Z,100981.54
2022-11-26T03:20:53.839Z,100979.57
2022-11-26T03:23:22.040Z,100977.08
2022-11-26T03:25:50.200Z,100978.27
2022-11-26T03:28:18.804Z,100980.29
2022-11-26T03:30:50.339Z,100980.80
2022-11-26T03:33:18.983Z,100982.18
2022-11-26T03:35:50.201Z,100982.29
2022-11-26T03:38:18.579Z,100983.98
2022-11-26T03:40:55.320Z,100983.77
2022-11-26T03:43:23.775Z,100988.16
2022-11-26T03:45:52.034Z,100993.91
2022-11-26T03:48:20.599Z,100994.02
2022-11-26T03:50:49.003Z,100997.52
2022-11-26T03:53:17.321Z,101000.11
2022-11-26T03:55:45.754Z,101004.27
2022-11-26T03:58:14.014Z,101004.34
2022-11-26T04:00:42.287Z,101005.00
2022-11-26T04:03:10.561Z,101005.20
2022-11-26T04:05:38.820Z,101008.11
2022-11-26T04:08:07.787Z,101009.61
2022-11-26T04:10:35.986Z,101011.89
2022-11-26T04:13:04.213Z,101016.24
2022-11-26T04:15:32.557Z,101017.37
2022-11-26T04:18:00.560Z,101018.70
2022-11-26T04:20:28.779Z,101020.10
2022-11-26T04:22:56.979Z,101022.95
2022-11-26T04:25:25.087Z,101025.80
2022-11-26T04:27:53.150Z,101022.80
2022-11-26T04:30:21.311Z,101022.81
2022-11-26T04:32:49.952Z,101026.13
2022-11-26T04:35:18.307Z,101029.33
2022-11-26T04:37:46.586Z,101025.31
2022-11-26T04:40:14.777Z,101029.01
2022-11-26T04:42:43.032Z,101028.54
2022-11-26T04:45:11.869Z,101031.09
2022-11-26T04:47:42.874Z,101034.08
2022-11-26T04:50:12.492Z,101039.02
2022-11-26T04:52:40.540Z,101039.82
2022-11-26T04:55:09.091Z,101045.72
2022-11-26T04:57:37.421Z,101044.45
2022-11-26T05:00:10.087Z,101047.12
2022-11-26T05:02:38.394Z,101045.67
2022-11-26T05:05:07.157Z,101051.23
2022-11-26T05:07:35.867Z,101052.56
2022-11-26T05:10:05.840Z,101052.73
2022-11-26T05:12:34.931Z,101056.77
2022-11-26T05:15:04.444Z,101058.68
2022-11-26T05:17:32.998Z,101057.17
2022-11-26T05:20:01.156Z,101055.16
2022-11-26T05:22:29.320Z,101057.64
2022-11-26T05:24:57.479Z,101062.16
2022-11-26T05:27:25.625Z,101063.86
2022-11-26T05:29:53.760Z,101063.83
2022-11-26T05:32:21.952Z,101069.82
2022-11-26T05:34:50.188Z,101067.90
2022-11-26T05:37:18.397Z,101072.16
2022-11-26T05:39:46.580Z,101073.77
2022-11-26T05:42:15.566Z,101077.70
2022-11-26T05:44:43.760Z,101079.45
2022-11-26T05:47:11.920Z,101078.15
2022-11-26T05:49:39.840Z,101079.02
2022-11-26T05:52:07.977Z,101083.77
2022-11-26T05:54:36.367Z,101084.41
2022-11-26T05:57:04.740Z,101087.92
2022-11-26T05:59:32.911Z,101091.88
2022-11-26T06:02:01.085Z,101094.67
2022-11-26T06:04:29.557Z,101097.83
2022-11-26T06:06:57.700Z,101103.27
2022-11-26T06:09:25.846Z,101106.16
2022-11-26T06:11:54.606Z,101108.57
2022-11-26T06:14:23.147Z,101111.23
2022-11-26T06:16:51.409Z,101111.34
2022-11-26T06:19:19.862Z,101114.10
2022-11-26T06:21:48.034Z,101116.56
2022-11-26T06:24:16.222Z,101119.54
2022-11-26T06:26:44.479Z,101121.25
2022-11-26T06:29:13.284Z,101120.64
2022-11-26T06:31:41.523Z,101126.66
2022-11-26T06:34:09.697Z,101127.66
2022-11-26T06:36:37.896Z,101129.31
2022-11-26T06:39:06.225Z,101135.70
2022-11-26T06:41:34.572Z,101139.06
2022-11-26T06:44:03.596Z,101136.44
2022-11-26T06:46:35.387Z,101139.09
2022-11-26T06:49:05.257Z,101142.40
2022-11-26T06:51:34.155Z,101142.11
2022-11-26T06:54:02.641Z,101147.55
2022-11-26T06:56:30.839Z,101150.50
2022-11-26T06:58:59.059Z,101155.59
2022-11-26T07:01:27.456Z,101157.08
2022-11-26T07:03:56.016Z,101158.46
2022-11-26T07:06:26.637Z,101158.61
2022-11-26T07:08:56.939Z,101161.44
2022-11-26T07:11:26.225Z,101158.60
2022-11-26T07:13:54.795Z,101163.55
2022-11-26T07:16:22.894Z,101166.49
2022-11-26T07:18:57.739Z,101165.05
2022-11-26T07:21:29.460Z,101168.13
2022-11-26T07:23:59.172Z,101177.29
2022-11-26T07:26:27.325Z,101178.39
2022-11-26T07:28:55.476Z,101176.33
2022-11-26T07:31:24.673Z,101181.27
2022-11-26T07:33:52.845Z,101178.56
2022-11-26T07:36:24.546Z,101186.48
2022-11-26T07:38:58.815Z,101192.13
2022-11-26T07:41:28.647Z,101195.05
2022-11-26T07:43:57.116Z,101200.83
2022-11-26T07:46:26.925Z,101204.59
2022-11-26T07:48:56.878Z,101212.48
2022-11-26T07:51:28.408Z,101217.14
2022-11-26T07:53:58.926Z,101217.51
2022-11-26T07:56:27.527Z,101221.67
2022-11-26T07:58:55.689Z,101223.02
2022-11-26T08:01:30.500Z,101224.02
2022-11-26T08:04:01.157Z,101226.06
2022-11-26T08:06:30.582Z,101226.52
2022-11-26T08:09:00.586Z,101226.97
2022-11-26T08:11:32.439Z,101231.52
2022-11-26T08:14:03.609Z,101230.91
2022-11-26T08:16:32.959Z,101232.33
2022-11-26T08:19:08.272Z,101236.75
2022-11-26T08:21:36.658Z,101238.55
2022-11-26T08:24:05.232Z,101241.45
2022-11-26T08:26:38.404Z,101238.61
2022-11-26T08:29:11.152Z,101243.85
2022-11-26T08:31:45.659Z,101245.51
2022-11-26T08:34:16.318Z,101248.83
2022-11-26T08:36:46.335Z,101245.98
2022-11-26T08:39:19.077Z,101244.04
2022-11-26T08:41:52.010Z,101247.54
2022-11-26T08:44:21.620Z,101249.71
2022-11-26T08:46:50.701Z,101250.59
2022-11-26T08:49:18.916Z,101254.30
2022-11-26T08:51:47.247Z,101257.41
2022-11-26T08:54:15.757Z,101264.07
2022-11-26T08:56:44.020Z,101264.23
2022-11-26T08:59:12.318Z,101266.83
2022-11-26T09:01:40.765Z,101263.86
2022-11-26T09:04:09.106Z,101263.57
2022-11-26T09:06:37.231Z,101266.17
2022-11-26T09:09:15.450Z,101265.38
2022-11-26T09:11:51.786Z,101265.72
2022-11-26T09:14:23.028Z,101267.23
2022-11-26T09:16:51.849Z,101266.98
2022-11-26T09:19:20.818Z,101270.38
2022-11-26T09:21:53.138Z,101268.88
2022-11-26T09:24:21.643Z,101268.80
2022-11-26T09:26:50.479Z,101265.55
2022-11-26T09:29:21.380Z,101271.04
2022-11-26T09:34:39.949Z,101272.14
2022-11-26T09:37:08.779Z,101271.02
2022-11-26T09:39:36.951Z,101273.42
2022-11-26T09:42:14.038Z,101274.28
2022-11-26T09:45:03.170Z,101278.84
2022-11-26T09:47:37.256Z,101278.08
2022-11-26T09:50:11.217Z,101274.93
2022-11-26T09:52:51.289Z,101279.07
2022-11-26T09:55:22.511Z,101278.23
2022-11-26T09:58:25.330Z,101277.08
2022-11-26T10:00:59.304Z,101277.70
2022-11-26T10:03:30.109Z,101280.40
2022-11-26T10:06:09.079Z,101277.16
2022-11-26T10:09:14.143Z,101283.45
2022-11-26T10:12:25.497Z,101283.16
2022-11-26T10:15:10.815Z,101287.71
2022-11-26T10:18:08.096Z,101290.56
2022-11-26T10:20:49.860Z,101288.42
2022-11-26T10:23:25.867Z,101291.02
2022-11-26T10:26:06.262Z,101293.40
2022-11-26T10:28:43.686Z,101293.94
2022-11-26T10:31:26.918Z,101297.17
2022-11-26T10:34:03.798Z,101299.92
2022-11-26T10:36:39.658Z,101300.71
2022-11-26T10:39:15.658Z,101300.41
2022-11-26T10:41:44.469Z,101300.90
2022-11-26T10:44:29.744Z,101297.70
2022-11-26T10:46:59.608Z,101303.50
2022-11-26T10:49:30.367Z,101303.96
2022-11-26T10:52:02.036Z,101306.66
2022-11-26T10:54:34.987Z,101306.52
2022-11-26T10:57:09.055Z,101303.39
2022-11-26T10:59:57.069Z,101304.71
2022-11-26T11:02:39.342Z,101304.27
2022-11-26T11:05:10.156Z,101308.05
2022-11-26T11:07:38.469Z,101311.47
2022-11-26T11:10:09.497Z,101310.38
2022-11-26T11:12:42.378Z,101311.13
2022-11-26T11:15:45.791Z,101312.77
2022-11-26T11:18:23.350Z,101316.99
2022-11-26T11:20:57.084Z,101317.08
2022-11-26T11:24:00.263Z,101318.64
2022-11-26T11:26:23.847Z,101319.30
2022-11-26T11:28:55.094Z,101322.60
2022-11-26T11:31:44.987Z,101327.55
2022-11-26T11:34:20.616Z,101328.74
2022-11-26T11:37:16.480Z,101329.55
2022-11-26T11:39:45.458Z,101331.21
2022-11-26T11:42:29.511Z,101332.83
2022-11-26T11:45:00.584Z,101333.99
2022-11-26T11:47:37.083Z,101338.47
2022-11-26T11:50:24.147Z,101339.83
2022-11-26T11:53:04.536Z,101343.96
2022-11-26T11:55:32.917Z,101342.68
2022-11-26T11:58:13.768Z,101343.10
2022-11-26T12:01:03.482Z,101340.58
2022-11-26T12:03:50.680Z,101340.92
2022-11-26T12:06:19.281Z,101350.71
2022-11-26T12:09:05.968Z,101354.51
2022-11-26T12:11:54.474Z,101354.85
2022-11-26T12:14:41.823Z,101353.94
2022-11-26T12:17:36.359Z,101357.73
2022-11-26T12:20:28.239Z,101357.02
2022-11-26T12:23:08.068Z,101351.05
2022-11-26T12:25:40.241Z,101354.89
2022-11-26T12:28:18.572Z,101354.38
2022-11-26T12:31:08.496Z,101359.29
2022-11-26T12:33:47.239Z,101359.73
2022-11-26T12:36:57.343Z,101362.23
2022-11-26T12:39:53.915Z,101361.70
2022-11-26T12:42:32.416Z,101365.30
2022-11-26T12:45:17.890Z,101369.48
2022-11-26T12:48:03.250Z,101370.56
2022-11-26T12:50:59.255Z,101371.66
2022-11-26T12:53:34.484Z,101376.95
2022-11-26T12:56:11.117Z,101376.77
2022-11-26T12:59:15.105Z,101378.82
2022-11-26T13:01:43.577Z,101381.30
2022-11-26T13:04:36.616Z,101378.33
2022-11-26T13:07:19.572Z,101377.94
2022-11-26T13:10:10.782Z,101378.16
2022-11-26T13:13:02.520Z,101379.25
2022-11-26T13:15:36.476Z,101382.80
2022-11-26T13:18:18.254Z,101384.52
2022-11-26T13:20:46.576Z,101392.96
2022-11-26T13:23:34.238Z,101395.94
2022-11-26T13:26:28.880Z,101400.17
2022-11-26T13:29:20.602Z,101405.30
2022-11-26T13:32:15.306Z,101401.14
2022-11-26T13:35:01.995Z,101399.63
2022-11-26T13:38:08.055Z,101401.25
2022-11-26T13:41:00.934Z,101402.98
2022-11-26T13:44:16.224Z,101402.70
2022-11-26T13:47:16.926Z,101410.02
2022-11-26T13:49:55.154Z,101411.33
2022-11-26T13:52:26.023Z,101416.91
2022-11-26T13:55:30.740Z,101413.42
2022-11-26T13:58:16.962Z,101414.25
2022-11-26T14:00:45.298Z,101419.14
2022-11-26T14:03:48.238Z,101423.79
2022-11-26T14:06:16.475Z,101429.16
2022-11-26T14:09:03.652Z,101432.29
2022-11-26T14:11:40.782Z,101434.68
2022-11-26T14:14:35.424Z,101439.42
2022-11-26T14:17:31.110Z,101440.30
2022-11-26T14:20:06.522Z,101440.55
2022-11-26T14:22:36.855Z,101441.88
2022-11-26T14:25:19.807Z,101442.77
2022-11-26T14:27:57.593Z,101444.55
2022-11-26T14:30:28.836Z,101444.02
2022-11-26T14:33:05.838Z,101448.48
2022-11-26T14:35:38.017Z,101446.91
2022-11-26T14:38:24.845Z,101450.16
2022-11-26T14:40:59.268Z,101444.73
2022-11-26T14:43:33.194Z,101449.36
2022-11-26T14:46:15.192Z,101441.67
2022-11-26T14:49:06.025Z,101445.38
2022-11-26T14:51:35.849Z,101451.02
2022-11-26T14:54:18.053Z,101449.75
2022-11-26T14:56:48.846Z,101450.67
2022-11-26T14:59:19.004Z,101453.45
2022-11-26T15:01:52.944Z,101455.01
2022-11-26T15:04:24.153Z,101456.92
2022-11-26T15:06:54.777Z,101458.16
2022-11-26T15:09:26.567Z,101461.74
2022-11-26T15:12:16.425Z,101463.73
2022-11-26T15:14:48.764Z,101467.32
2022-11-26T15:17:21.012Z,101462.70
2022-11-26T15:19:56.786Z,101465.58
2022-11-26T15:22:34.589Z,101468.49
2022-11-26T15:25:03.446Z,101472.02
2022-11-26T15:27:38.210Z,101475.17
2022-11-26T15:30:34.373Z,101478.50
2022-11-26T15:33:34.375Z,101480.63
2022-11-26T15:36:04.519Z,101481.39
2022-11-26T15:38:38.986Z,101481.55
2022-11-26T15:41:14.417Z,101481.73
2022-11-26T15:43:46.320Z,101480.64
2022-11-26T15:46:22.541Z,101476.95
2022-11-26T15:48:53.917Z,101476.23
2022-11-26T15:51:37.536Z,101478.17
2022-11-26T15:54:18.283Z,101486.64
2022-11-26T15:56:56.127Z,101491.07
2022-11-26T15:59:40.865Z,101490.10
2022-11-26T16:02:28.602Z,101489.68
2022-11-26T16:05:20.745Z,101495.02
2022-11-26T16:08:21.772Z,101491.25
2022-11-26T16:11:03.005Z,101495.39
2022-11-26T16:13:51.636Z,101494.95
2022-11-26T16:16:23.435Z,101492.57
2022-11-26T16:18:59.841Z,101492.46
2022-11-26T16:21:34.306Z,101492.95
2022-11-26T16:24:06.095Z,101495.23
2022-11-26T16:27:18.530Z,101496.08
2022-11-26T16:29:47.342Z,101506.02
2022-11-26T16:32:18.124Z,101507.58
2022-11-26T16:34:46.322Z,101509.38
2022-11-26T16:37:30.036Z,101512.72
2022-11-26T16:40:12.779Z,101511.11
2022-11-26T16:42:40.987Z,101509.83
2022-11-26T16:45:11.437Z,101506.02
2022-11-26T16:47:46.658Z,101509.96
2022-11-26T16:50:34.676Z,101515.08
2022-11-26T16:53:02.926Z,101515.31
2022-11-26T16:55:31.472Z,101517.27
2022-11-26T16:58:01.513Z,101518.95
2022-11-26T17:00:29.736Z,101524.58
2022-11-26T17:02:57.972Z,101526.15
2022-11-26T17:05:26.213Z,101528.45
2022-11-26T17:08:14.526Z,101526.80
2022-11-26T17:10:42.849Z,101528.34
2022-11-26T17:13:10.970Z,101528.31
2022-11-26T17:15:39.043Z,101529.84
2022-11-26T17:18:18.653Z,101533.98
2022-11-26T17:20:46.876Z,101537.08
2022-11-26T17:23:15.482Z,101540.73
2022-11-26T17:25:45.556Z,101544.25
2022-11-26T17:28:15.073Z,101546.46
2022-11-26T17:30:45.319Z,101550.83
2022-11-26T17:33:13.558Z,101549.73
2022-11-26T17:35:41.695Z,101547.44
2022-11-26T17:38:20.236Z,101549.69
2022-11-26T17:40:48.874Z,101551.48
2022-11-26T17:43:17.353Z,101557.35
2022-11-26T17:45:45.572Z,101559.26
2022-11-26T17:48:14.238Z,101554.30
2022-11-26T17:50:42.845Z,101558.00
2022-11-26T17:53:11.140Z,101557.81
2022-11-26T17:55:39.597Z,101557.80
2022-11-26T17:58:12.055Z,101556.86
2022-11-26T18:00:40.325Z,101559.70
2022-11-26T18:03:08.595Z,101560.61
2022-11-26T18:05:41.840Z,101557.06
2022-11-26T18:08:10.655Z,101559.20
2022-11-26T18:10:41.551Z,101558.04
2022-11-26T18:13:09.727Z,101556.23
2022-11-26T18:15:37.975Z,101556.38
2022-11-26T18:18:07.630Z,101559.65
2022-11-26T18:20:35.732Z,101559.48
2022-11-26T18:23:03.971Z,101561.04
2022-11-26T18:25:33.891Z,101558.89
2022-11-26T18:28:02.059Z,101560.73
2022-11-26T18:30:30.754Z,101571.02
2022-11-26T18:32:58.946Z,101572.90
2022-11-26T18:35:26.990Z,101568.55
2022-11-26T18:37:55.060Z,101574.42
2022-11-26T18:40:23.329Z,101575.32
2022-11-26T18:42:52.526Z,101577.17
2022-11-26T18:45:20.902Z,101582.65
2022-11-26T18:47:49.195Z,101584.12
2022-11-26T18:50:17.467Z,101586.63
2022-11-26T18:52:45.699Z,101590.33
2022-11-26T18:55:15.180Z,101585.53
2022-11-26T18:57:43.456Z,101588.44
2022-11-26T19:00:12.207Z,101589.63
2022-11-26T19:02:40.418Z,101583.97
2022-11-26T19:05:08.779Z,101581.55
2022-11-26T19:07:37.621Z,101584.33
2022-11-26T19:10:06.553Z,101586.75
2022-11-26T19:12:34.798Z,101586.21
2022-11-26T19:15:03.318Z,101588.20
2022-11-26T19:17:31.554Z,101588.13
2022-11-26T19:19:59.905Z,101591.88
2022-11-26T19:22:28.252Z,101596.82
2022-11-26T19:24:56.429Z,101598.11
2022-11-26T19:27:24.655Z,101597.93
2022-11-26T19:29:53.116Z,101602.42
2022-11-26T19:32:21.280Z,101605.25
2022-11-26T19:35:05.631Z,101608.34
2022-11-26T19:37:34.456Z,101610.05
2022-11-26T19:40:02.653Z,101611.41
2022-11-26T19:42:33.227Z,101615.32
2022-11-26T19:45:01.471Z,101615.31
2022-11-26T19:47:29.750Z,101616.50
2022-11-26T19:49:57.931Z,101615.47
2022-11-26T19:52:26.265Z,101621.35
2022-11-26T19:54:54.604Z,101622.02
2022-11-26T19:57:22.841Z,101618.71
2022-11-26T19:59:55.255Z,101618.55
2022-11-26T20:02:25.062Z,101622.64
2022-11-26T20:04:53.373Z,101619.60
2022-11-26T20:07:21.477Z,101616.50
2022-11-26T20:09:54.848Z,101618.38
2022-11-26T20:12:23.007Z,101625.89
2022-11-26T20:14:51.402Z,101629.44
2022-11-26T20:17:19.594Z,101635.08
2022-11-26T20:19:47.849Z,101631.10
2022-11-26T20:22:16.036Z,101628.91
2022-11-26T20:24:44.697Z,101631.31
2022-11-26T20:27:16.301Z,101633.16
2022-11-26T20:29:46.285Z,101637.46
2022-11-26T20:32:14.899Z,101636.31
2022-11-26T20:34:44.918Z,101637.20
2022-11-26T20:37:13.306Z,101641.73
2022-11-26T20:39:41.972Z,101645.63
2022-11-26T20:42:12.256Z,101643.33
2022-11-26T20:44:40.685Z,101637.73
2022-11-26T20:47:09.037Z,101641.83
2022-11-26T20:49:42.849Z,101637.92
2022-11-26T20:52:12.122Z,101639.50
2022-11-26T20:54:41.346Z,101636.17
2022-11-26T20:57:09.636Z,101635.08
2022-11-26T20:59:38.314Z,101637.48
2022-11-26T21:02:07.243Z,101632.07
2022-11-26T21:04:35.415Z,101631.21
2022-11-26T21:07:04.519Z,101631.34
2022-11-26T21:09:32.742Z,101634.55
2022-11-26T21:12:00.986Z,101633.67
2022-11-26T21:14:29.749Z,101632.67
2022-11-26T21:16:57.885Z,101631.91
2022-11-26T21:19:26.553Z,101629.66
2022-11-26T21:21:54.735Z,101630.11
2022-11-26T21:24:23.409Z,101633.59
2022-11-26T21:26:51.711Z,101636.45
2022-11-26T21:29:20.145Z,101638.88
2022-11-26T21:31:48.277Z,101638.16
2022-11-26T21:34:16.441Z,101637.23
2022-11-26T21:36:44.533Z,101640.74
2022-11-26T21:39:15.905Z,101640.26
2022-11-26T21:41:44.141Z,101642.39
2022-11-26T21:44:12.384Z,101644.88
2022-11-26T21:46:40.720Z,101653.44
2022-11-26T21:49:09.101Z,101659.20
2022-11-26T21:51:37.883Z,101663.45
2022-11-26T21:54:09.757Z,101657.80
2022-11-26T21:56:38.272Z,101661.45
2022-11-26T21:59:06.398Z,101662.02
2022-11-26T22:01:36.347Z,101662.60
2022-11-26T22:04:18.427Z,101661.96
2022-11-26T22:06:48.962Z,101663.04
2022-11-26T22:09:17.669Z,101663.28
2022-11-26T22:11:46.787Z,101664.45
2022-11-26T22:14:16.886Z,101666.71
2022-11-26T22:16:45.396Z,101670.81
2022-11-26T22:19:13.948Z,101668.09
2022-11-26T22:21:42.940Z,101678.44
2022-11-26T22:24:20.479Z,101680.10
2022-11-26T22:26:48.622Z,101676.88
2022-11-26T22:29:19.455Z,101677.79
2022-11-26T22:31:48.686Z,101677.10
2022-11-26T22:34:22.174Z,101682.89
2022-11-26T22:36:51.115Z,101685.51
2022-11-26T22:39:20.323Z,101688.77
2022-11-26T22:41:48.733Z,101688.61
2022-11-26T22:44:17.618Z,101688.23
2022-11-26T22:46:46.073Z,101684.73
2022-11-26T22:49:19.119Z,101688.48
2022-11-26T22:51:47.543Z,101691.42
2022-11-26T22:54:18.371Z,101687.98
2022-11-26T22:56:46.758Z,101686.05
2022-11-26T22:59:15.581Z,101689.45
2022-11-26T23:01:43.788Z,101690.80
2022-11-26T23:04:12.124Z,101691.29
2022-11-26T23:06:40.843Z,101691.27
2022-11-26T23:09:11.485Z,101688.05
2022-11-26T23:11:41.926Z,101692.70
2022-11-26T23:14:12.137Z,101684.77
2022-11-26T23:16:42.795Z,101687.52
2022-11-26T23:19:15.035Z,101689.73
2022-11-26T23:21:47.048Z,101691.59
2022-11-26T23:24:16.597Z,101684.84
2022-11-26T23:26:45.376Z,101687.08
2022-11-26T23:29:14.175Z,101685.58
2022-11-26T23:31:44.539Z,101687.80
2022-11-26T23:34:14.136Z,101684.35
2022-11-26T23:36:42.897Z,101684.48
2022-11-26T23:39:12.527Z,101685.41
2022-11-26T23:41:40.725Z,101685.98
2022-11-26T23:44:08.861Z,101683.54
2022-11-26T23:46:37.037Z,101682.31
2022-11-26T23:49:05.266Z,101685.04
2022-11-26T23:51:34.019Z,101684.18
2022-11-26T23:54:02.474Z,101686.39
2022-11-26T23:56:33.379Z,101687.74
2022-11-26T23:59:04.432Z,101685.67
